sensor_id;sensor_type;location;lat;lon;timestamp;temperature;humidity
59311;DHT22;45078;51.654;21.250;2023-07-31T00:01:25;18.30;99.90
59311;DHT22;45078;51.654;21.250;2023-07-31T00:03:51;18.30;99.90
59311;DHT22;45078;51.654;21.250;2023-07-31T00:06:17;18.30;99.90
59311;DHT22;45078;51.654;21.250;2023-07-31T00:08:42;18.30;99.90
59311;DHT22;45078;51.654;21.250;2023-07-31T00:11:08;18.30;99.90
59311;DHT22;45078;51.654;21.250;2023-07-31T00:13:34;18.20;99.90
59311;DHT22;45078;51.654;21.250;2023-07-31T00:15:59;18.20;99.90
59311;DHT22;45078;51.654;21.250;2023-07-31T00:18:25;18.20;99.90
59311;DHT22;45078;51.654;21.250;2023-07-31T00:20:51;18.20;99.90
59311;DHT22;45078;51.654;21.250;2023-07-31T00:23:17;18.10;99.90
59311;DHT22;45078;51.654;21.250;2023-07-31T00:25:42;18.10;99.90
59311;DHT22;45078;51.654;21.250;2023-07-31T00:28:08;18.00;99.90
59311;DHT22;45078;51.654;21.250;2023-07-31T00:30:34;18.00;99.90
59311;DHT22;45078;51.654;21.250;2023-07-31T00:33:00;18.00;99.90
59311;DHT22;45078;51.654;21.250;2023-07-31T00:35:25;17.90;99.90
59311;DHT22;45078;51.654;21.250;2023-07-31T00:37:51;17.90;99.90
59311;DHT22;45078;51.654;21.250;2023-07-31T00:40:17;17.90;99.90
59311;DHT22;45078;51.654;21.250;2023-07-31T00:42:43;17.90;99.90
59311;DHT22;45078;51.654;21.250;2023-07-31T00:45:11;17.90;99.90
59311;DHT22;45078;51.654;21.250;2023-07-31T00:47:37;17.80;99.90
59311;DHT22;45078;51.654;21.250;2023-07-31T00:50:03;17.80;99.90
59311;DHT22;45078;51.654;21.250;2023-07-31T00:52:29;17.80;99.90
59311;DHT22;45078;51.654;21.250;2023-07-31T00:54:55;17.70;99.90
59311;DHT22;45078;51.654;21.250;2023-07-31T00:57:20;17.70;99.90
59311;DHT22;45078;51.654;21.250;2023-07-31T00:59:46;17.60;99.90
59311;DHT22;45078;51.654;21.250;2023-07-31T01:02:12;17.60;99.90
59311;DHT22;45078;51.654;21.250;2023-07-31T01:04:38;17.50;99.90
59311;DHT22;45078;51.654;21.250;2023-07-31T01:07:56;17.50;99.90
59311;DHT22;45078;51.654;21.250;2023-07-31T01:09:59;17.40;99.90
59311;DHT22;45078;51.654;21.250;2023-07-31T01:12:28;17.50;99.90
59311;DHT22;45078;51.654;21.250;2023-07-31T01:15:04;17.40;99.90
59311;DHT22;45078;51.654;21.250;2023-07-31T01:17:30;17.40;99.90
59311;DHT22;45078;51.654;21.250;2023-07-31T01:20:01;17.40;99.90
59311;DHT22;45078;51.654;21.250;2023-07-31T01:30:44;17.40;99.90
59311;DHT22;45078;51.654;21.250;2023-07-31T01:33:11;17.40;99.90
59311;DHT22;45078;51.654;21.250;2023-07-31T01:35:38;17.40;99.90
59311;DHT22;45078;51.654;21.250;2023-07-31T01:38:05;17.40;99.90
59311;DHT22;45078;51.654;21.250;2023-07-31T01:40:31;17.40;99.90
59311;DHT22;45078;51.654;21.250;2023-07-31T01:42:56;17.40;99.90
59311;DHT22;45078;51.654;21.250;2023-07-31T01:45:22;17.50;99.90
59311;DHT22;45078;51.654;21.250;2023-07-31T01:47:48;17.50;99.90
59311;DHT22;45078;51.654;21.250;2023-07-31T01:50:13;17.50;99.90
59311;DHT22;45078;51.654;21.250;2023-07-31T01:52:39;17.50;99.90
59311;DHT22;45078;51.654;21.250;2023-07-31T01:55:05;17.50;99.90
59311;DHT22;45078;51.654;21.250;2023-07-31T01:57:31;17.50;99.90
59311;DHT22;45078;51.654;21.250;2023-07-31T01:59:56;17.50;99.90
59311;DHT22;45078;51.654;21.250;2023-07-31T02:02:23;17.50;99.90
59311;DHT22;45078;51.654;21.250;2023-07-31T02:04:48;17.50;99.90
59311;DHT22;45078;51.654;21.250;2023-07-31T02:07:14;17.50;99.90
59311;DHT22;45078;51.654;21.250;2023-07-31T02:09:40;17.50;99.90
59311;DHT22;45078;51.654;21.250;2023-07-31T02:12:06;17.50;99.90
59311;DHT22;45078;51.654;21.250;2023-07-31T02:14:34;17.50;99.90
59311;DHT22;45078;51.654;21.250;2023-07-31T02:17:00;17.50;99.90
59311;DHT22;45078;51.654;21.250;2023-07-31T02:19:26;17.50;99.90
59311;DHT22;45078;51.654;21.250;2023-07-31T02:21:52;17.50;99.90
59311;DHT22;45078;51.654;21.250;2023-07-31T02:24:17;17.50;99.90
59311;DHT22;45078;51.654;21.250;2023-07-31T02:26:43;17.50;99.90
59311;DHT22;45078;51.654;21.250;2023-07-31T02:29:09;17.50;99.90
59311;DHT22;45078;51.654;21.250;2023-07-31T02:31:35;17.40;99.90
59311;DHT22;45078;51.654;21.250;2023-07-31T02:34:00;17.40;99.90
59311;DHT22;45078;51.654;21.250;2023-07-31T02:36:26;17.40;99.90
59311;DHT22;45078;51.654;21.250;2023-07-31T02:38:52;17.30;99.90
59311;DHT22;45078;51.654;21.250;2023-07-31T02:41:17;17.20;99.90
59311;DHT22;45078;51.654;21.250;2023-07-31T02:43:43;17.20;99.90
59311;DHT22;45078;51.654;21.250;2023-07-31T02:46:09;17.10;99.90
59311;DHT22;45078;51.654;21.250;2023-07-31T02:48:35;17.10;99.90
59311;DHT22;45078;51.654;21.250;2023-07-31T02:51:01;17.10;99.90
59311;DHT22;45078;51.654;21.250;2023-07-31T02:53:26;17.00;99.90
59311;DHT22;45078;51.654;21.250;2023-07-31T02:55:52;17.00;99.90
59311;DHT22;45078;51.654;21.250;2023-07-31T02:58:18;17.00;99.90
59311;DHT22;45078;51.654;21.250;2023-07-31T03:00:44;17.00;99.90
59311;DHT22;45078;51.654;21.250;2023-07-31T03:03:10;16.90;99.90
59311;DHT22;45078;51.654;21.250;2023-07-31T03:05:36;16.90;99.90
59311;DHT22;45078;51.654;21.250;2023-07-31T03:08:01;16.90;99.90
59311;DHT22;45078;51.654;21.250;2023-07-31T03:10:27;16.90;99.90
59311;DHT22;45078;51.654;21.250;2023-07-31T03:12:53;16.90;99.90
59311;DHT22;45078;51.654;21.250;2023-07-31T03:15:19;16.90;99.90
59311;DHT22;45078;51.654;21.250;2023-07-31T03:17:44;16.90;99.90
59311;DHT22;45078;51.654;21.250;2023-07-31T03:20:10;16.80;99.90
59311;DHT22;45078;51.654;21.250;2023-07-31T03:22:36;16.80;99.90
59311;DHT22;45078;51.654;21.250;2023-07-31T03:25:05;16.80;99.90
59311;DHT22;45078;51.654;21.250;2023-07-31T03:27:31;16.80;99.90
59311;DHT22;45078;51.654;21.250;2023-07-31T03:29:58;16.80;99.90
59311;DHT22;45078;51.654;21.250;2023-07-31T03:32:25;16.80;99.90
59311;DHT22;45078;51.654;21.250;2023-07-31T03:34:50;16.80;99.90
59311;DHT22;45078;51.654;21.250;2023-07-31T03:37:16;16.80;99.90
59311;DHT22;45078;51.654;21.250;2023-07-31T03:39:42;16.80;99.90
59311;DHT22;45078;51.654;21.250;2023-07-31T03:42:07;16.90;99.90
59311;DHT22;45078;51.654;21.250;2023-07-31T03:44:33;16.90;99.90
59311;DHT22;45078;51.654;21.250;2023-07-31T03:46:59;16.90;99.90
59311;DHT22;45078;51.654;21.250;2023-07-31T03:49:24;16.90;99.90
59311;DHT22;45078;51.654;21.250;2023-07-31T03:51:50;17.00;99.90
59311;DHT22;45078;51.654;21.250;2023-07-31T03:54:16;17.00;99.90
59311;DHT22;45078;51.654;21.250;2023-07-31T03:56:41;17.00;99.90
59311;DHT22;45078;51.654;21.250;2023-07-31T03:59:07;17.00;99.90
59311;DHT22;45078;51.654;21.250;2023-07-31T04:01:33;17.10;99.90
59311;DHT22;45078;51.654;21.250;2023-07-31T04:03:58;17.10;99.90
59311;DHT22;45078;51.654;21.250;2023-07-31T04:06:24;17.20;99.90
59311;DHT22;45078;51.654;21.250;2023-07-31T04:08:50;17.20;99.90
59311;DHT22;45078;51.654;21.250;2023-07-31T04:11:16;17.30;99.90
59311;DHT22;45078;51.654;21.250;2023-07-31T04:13:41;17.40;99.90
59311;DHT22;45078;51.654;21.250;2023-07-31T04:16:07;17.40;99.90
59311;DHT22;45078;51.654;21.250;2023-07-31T04:18:33;17.40;99.90
59311;DHT22;45078;51.654;21.250;2023-07-31T04:20:59;17.50;99.90
59311;DHT22;45078;51.654;21.250;2023-07-31T04:23:26;17.50;99.90
59311;DHT22;45078;51.654;21.250;2023-07-31T04:25:52;17.50;99.90
59311;DHT22;45078;51.654;21.250;2023-07-31T04:28:18;17.40;99.90
59311;DHT22;45078;51.654;21.250;2023-07-31T04:30:43;17.40;99.90
59311;DHT22;45078;51.654;21.250;2023-07-31T04:33:09;17.40;99.90
59311;DHT22;45078;51.654;21.250;2023-07-31T04:35:35;17.30;99.90
59311;DHT22;45078;51.654;21.250;2023-07-31T04:38:01;17.30;99.90
59311;DHT22;45078;51.654;21.250;2023-07-31T04:40:26;17.30;99.90
59311;DHT22;45078;51.654;21.250;2023-07-31T04:42:52;17.30;99.90
59311;DHT22;45078;51.654;21.250;2023-07-31T04:45:18;17.40;99.90
59311;DHT22;45078;51.654;21.250;2023-07-31T04:47:43;17.40;99.90
59311;DHT22;45078;51.654;21.250;2023-07-31T04:50:09;17.40;99.90
59311;DHT22;45078;51.654;21.250;2023-07-31T04:52:35;17.40;99.90
59311;DHT22;45078;51.654;21.250;2023-07-31T04:55:01;17.40;99.90
59311;DHT22;45078;51.654;21.250;2023-07-31T04:57:27;17.50;99.90
59311;DHT22;45078;51.654;21.250;2023-07-31T04:59:53;17.60;99.90
59311;DHT22;45078;51.654;21.250;2023-07-31T05:02:18;17.60;99.90
59311;DHT22;45078;51.654;21.250;2023-07-31T05:04:44;17.60;99.90
59311;DHT22;45078;51.654;21.250;2023-07-31T05:07:10;17.70;99.90
59311;DHT22;45078;51.654;21.250;2023-07-31T05:09:36;17.70;99.90
59311;DHT22;45078;51.654;21.250;2023-07-31T05:12:04;17.70;99.90
59311;DHT22;45078;51.654;21.250;2023-07-31T05:14:29;17.70;99.90
59311;DHT22;45078;51.654;21.250;2023-07-31T05:16:55;17.70;99.90
59311;DHT22;45078;51.654;21.250;2023-07-31T05:19:21;17.70;99.90
59311;DHT22;45078;51.654;21.250;2023-07-31T05:21:47;17.70;99.90
59311;DHT22;45078;51.654;21.250;2023-07-31T05:24:12;17.70;99.90
59311;DHT22;45078;51.654;21.250;2023-07-31T05:26:38;17.70;99.90
59311;DHT22;45078;51.654;21.250;2023-07-31T05:29:04;17.70;99.90
59311;DHT22;45078;51.654;21.250;2023-07-31T05:31:29;17.80;99.90
59311;DHT22;45078;51.654;21.250;2023-07-31T05:33:57;17.70;99.90
59311;DHT22;45078;51.654;21.250;2023-07-31T05:36:23;17.60;99.90
59311;DHT22;45078;51.654;21.250;2023-07-31T05:38:49;17.70;99.90
59311;DHT22;45078;51.654;21.250;2023-07-31T05:41:15;17.70;99.90
59311;DHT22;45078;51.654;21.250;2023-07-31T05:43:41;17.70;99.90
59311;DHT22;45078;51.654;21.250;2023-07-31T05:46:09;17.70;99.90
59311;DHT22;45078;51.654;21.250;2023-07-31T05:48:35;17.70;99.90
59311;DHT22;45078;51.654;21.250;2023-07-31T05:51:01;17.70;99.90
59311;DHT22;45078;51.654;21.250;2023-07-31T05:53:27;17.80;99.90
59311;DHT22;45078;51.654;21.250;2023-07-31T05:55:52;17.80;99.90
59311;DHT22;45078;51.654;21.250;2023-07-31T05:58:18;17.80;99.90
59311;DHT22;45078;51.654;21.250;2023-07-31T06:00:44;17.80;99.90
59311;DHT22;45078;51.654;21.250;2023-07-31T06:03:09;17.90;99.90
59311;DHT22;45078;51.654;21.250;2023-07-31T06:05:35;17.90;99.90
59311;DHT22;45078;51.654;21.250;2023-07-31T06:08:01;18.00;99.90
59311;DHT22;45078;51.654;21.250;2023-07-31T06:10:27;18.10;99.90
59311;DHT22;45078;51.654;21.250;2023-07-31T06:12:53;18.20;99.90
59311;DHT22;45078;51.654;21.250;2023-07-31T06:15:19;18.30;99.90
59311;DHT22;45078;51.654;21.250;2023-07-31T06:17:45;18.40;99.90
59311;DHT22;45078;51.654;21.250;2023-07-31T06:20:11;18.40;99.90
59311;DHT22;45078;51.654;21.250;2023-07-31T06:22:37;18.60;99.90
59311;DHT22;45078;51.654;21.250;2023-07-31T06:25:03;18.60;99.90
59311;DHT22;45078;51.654;21.250;2023-07-31T06:27:28;18.70;99.90
59311;DHT22;45078;51.654;21.250;2023-07-31T06:29:54;18.80;99.90
59311;DHT22;45078;51.654;21.250;2023-07-31T06:32:20;18.90;99.90
59311;DHT22;45078;51.654;21.250;2023-07-31T06:34:45;19.10;99.90
59311;DHT22;45078;51.654;21.250;2023-07-31T06:37:11;19.20;99.90
59311;DHT22;45078;51.654;21.250;2023-07-31T06:39:37;19.40;99.90
59311;DHT22;45078;51.654;21.250;2023-07-31T06:42:03;19.40;99.90
59311;DHT22;45078;51.654;21.250;2023-07-31T06:44:29;19.40;99.90
59311;DHT22;45078;51.654;21.250;2023-07-31T06:46:55;19.40;99.90
59311;DHT22;45078;51.654;21.250;2023-07-31T06:49:21;19.50;99.90
59311;DHT22;45078;51.654;21.250;2023-07-31T06:51:47;19.60;99.90
59311;DHT22;45078;51.654;21.250;2023-07-31T06:54:12;19.80;99.90
59311;DHT22;45078;51.654;21.250;2023-07-31T06:56:38;19.90;99.90
59311;DHT22;45078;51.654;21.250;2023-07-31T06:59:04;19.90;99.90
59311;DHT22;45078;51.654;21.250;2023-07-31T07:01:30;20.10;99.90
59311;DHT22;45078;51.654;21.250;2023-07-31T07:03:55;20.20;99.90
59311;DHT22;45078;51.654;21.250;2023-07-31T07:06:22;20.10;99.90
59311;DHT22;45078;51.654;21.250;2023-07-31T07:08:48;20.10;99.90
59311;DHT22;45078;51.654;21.250;2023-07-31T07:11:14;20.20;99.90
59311;DHT22;45078;51.654;21.250;2023-07-31T07:13:39;20.30;99.90
59311;DHT22;45078;51.654;21.250;2023-07-31T07:16:05;20.40;99.90
59311;DHT22;45078;51.654;21.250;2023-07-31T07:18:31;20.40;99.90
59311;DHT22;45078;51.654;21.250;2023-07-31T07:20:57;20.40;99.90
59311;DHT22;45078;51.654;21.250;2023-07-31T07:23:24;20.50;99.90
59311;DHT22;45078;51.654;21.250;2023-07-31T07:25:50;20.50;99.90
59311;DHT22;45078;51.654;21.250;2023-07-31T07:28:16;20.50;99.90
59311;DHT22;45078;51.654;21.250;2023-07-31T07:30:42;20.50;99.90
59311;DHT22;45078;51.654;21.250;2023-07-31T07:33:08;20.60;99.90
59311;DHT22;45078;51.654;21.250;2023-07-31T07:35:34;20.60;99.90
59311;DHT22;45078;51.654;21.250;2023-07-31T07:38:01;20.80;99.90
59311;DHT22;45078;51.654;21.250;2023-07-31T07:40:27;20.90;99.90
59311;DHT22;45078;51.654;21.250;2023-07-31T07:42:53;21.00;99.90
59311;DHT22;45078;51.654;21.250;2023-07-31T07:45:18;21.20;99.90
59311;DHT22;45078;51.654;21.250;2023-07-31T07:47:44;21.40;99.90
59311;DHT22;45078;51.654;21.250;2023-07-31T07:50:10;21.40;99.90
59311;DHT22;45078;51.654;21.250;2023-07-31T07:52:36;21.50;99.90
59311;DHT22;45078;51.654;21.250;2023-07-31T07:55:02;21.50;99.90
59311;DHT22;45078;51.654;21.250;2023-07-31T07:57:29;21.50;99.90
59311;DHT22;45078;51.654;21.250;2023-07-31T07:59:54;21.60;99.90
59311;DHT22;45078;51.654;21.250;2023-07-31T08:02:21;21.60;99.90
59311;DHT22;45078;51.654;21.250;2023-07-31T08:04:47;21.60;99.90
59311;DHT22;45078;51.654;21.250;2023-07-31T08:07:13;21.60;99.90
59311;DHT22;45078;51.654;21.250;2023-07-31T08:09:39;21.50;99.90
59311;DHT22;45078;51.654;21.250;2023-07-31T08:12:06;21.60;99.90
59311;DHT22;45078;51.654;21.250;2023-07-31T08:14:32;21.60;99.90
59311;DHT22;45078;51.654;21.250;2023-07-31T08:16:57;21.70;99.90
59311;DHT22;45078;51.654;21.250;2023-07-31T08:19:23;21.70;99.90
59311;DHT22;45078;51.654;21.250;2023-07-31T08:21:49;21.60;99.90
59311;DHT22;45078;51.654;21.250;2023-07-31T08:24:15;21.50;99.90
59311;DHT22;45078;51.654;21.250;2023-07-31T08:26:40;21.50;99.90
59311;DHT22;45078;51.654;21.250;2023-07-31T08:29:06;21.60;99.90
59311;DHT22;45078;51.654;21.250;2023-07-31T08:31:32;21.60;99.90
59311;DHT22;45078;51.654;21.250;2023-07-31T08:33:58;21.70;99.90
59311;DHT22;45078;51.654;21.250;2023-07-31T08:36:23;21.90;99.90
59311;DHT22;45078;51.654;21.250;2023-07-31T08:38:49;21.90;99.90
59311;DHT22;45078;51.654;21.250;2023-07-31T08:41:16;22.10;99.90
59311;DHT22;45078;51.654;21.250;2023-07-31T08:43:46;22.30;99.90
59311;DHT22;45078;51.654;21.250;2023-07-31T08:46:12;22.30;99.90
59311;DHT22;45078;51.654;21.250;2023-07-31T08:48:41;22.40;99.90
59311;DHT22;45078;51.654;21.250;2023-07-31T08:51:07;22.20;99.90
59311;DHT22;45078;51.654;21.250;2023-07-31T08:53:33;22.20;99.90
59311;DHT22;45078;51.654;21.250;2023-07-31T08:56:00;22.30;99.90
59311;DHT22;45078;51.654;21.250;2023-07-31T08:58:31;22.30;99.90
59311;DHT22;45078;51.654;21.250;2023-07-31T09:01:01;22.30;99.90
59311;DHT22;45078;51.654;21.250;2023-07-31T09:03:33;22.40;99.90
59311;DHT22;45078;51.654;21.250;2023-07-31T09:06:00;22.50;99.90
59311;DHT22;45078;51.654;21.250;2023-07-31T09:08:27;22.60;99.90
59311;DHT22;45078;51.654;21.250;2023-07-31T09:11:00;22.70;99.90
59311;DHT22;45078;51.654;21.250;2023-07-31T09:13:29;22.80;99.90
59311;DHT22;45078;51.654;21.250;2023-07-31T09:15:55;22.70;99.90
59311;DHT22;45078;51.654;21.250;2023-07-31T09:18:20;22.70;99.90
59311;DHT22;45078;51.654;21.250;2023-07-31T09:21:08;22.90;99.90
59311;DHT22;45078;51.654;21.250;2023-07-31T09:23:44;22.80;99.90
59311;DHT22;45078;51.654;21.250;2023-07-31T09:26:11;22.70;99.90
59311;DHT22;45078;51.654;21.250;2023-07-31T09:28:36;22.70;99.90
59311;DHT22;45078;51.654;21.250;2023-07-31T09:31:02;22.80;99.90
59311;DHT22;45078;51.654;21.250;2023-07-31T09:33:28;22.70;99.90
59311;DHT22;45078;51.654;21.250;2023-07-31T09:35:54;22.80;99.90
59311;DHT22;45078;51.654;21.250;2023-07-31T09:38:20;22.80;99.90
59311;DHT22;45078;51.654;21.250;2023-07-31T09:40:49;22.70;99.90
59311;DHT22;45078;51.654;21.250;2023-07-31T09:43:21;22.60;99.90
59311;DHT22;45078;51.654;21.250;2023-07-31T09:45:48;22.50;99.90
59311;DHT22;45078;51.654;21.250;2023-07-31T09:48:16;22.50;99.90
59311;DHT22;45078;51.654;21.250;2023-07-31T09:50:47;22.70;99.90
59311;DHT22;45078;51.654;21.250;2023-07-31T09:53:13;22.90;99.90
59311;DHT22;45078;51.654;21.250;2023-07-31T09:55:41;22.90;99.90
59311;DHT22;45078;51.654;21.250;2023-07-31T09:58:09;22.90;99.90
59311;DHT22;45078;51.654;21.250;2023-07-31T10:00:36;23.00;99.90
59311;DHT22;45078;51.654;21.250;2023-07-31T10:03:09;23.20;99.90
59311;DHT22;45078;51.654;21.250;2023-07-31T10:05:40;23.10;99.90
59311;DHT22;45078;51.654;21.250;2023-07-31T10:08:10;23.10;99.90
59311;DHT22;45078;51.654;21.250;2023-07-31T10:10:36;23.10;99.90
59311;DHT22;45078;51.654;21.250;2023-07-31T10:13:04;23.10;99.90
59311;DHT22;45078;51.654;21.250;2023-07-31T10:15:31;23.20;99.90
59311;DHT22;45078;51.654;21.250;2023-07-31T10:17:58;23.30;99.90
59311;DHT22;45078;51.654;21.250;2023-07-31T10:20:24;23.40;99.90
59311;DHT22;45078;51.654;21.250;2023-07-31T10:22:54;23.40;99.90
59311;DHT22;45078;51.654;21.250;2023-07-31T10:25:22;23.50;99.90
59311;DHT22;45078;51.654;21.250;2023-07-31T10:27:48;23.50;99.90
59311;DHT22;45078;51.654;21.250;2023-07-31T10:30:20;23.50;99.90
59311;DHT22;45078;51.654;21.250;2023-07-31T10:32:47;23.40;99.90
59311;DHT22;45078;51.654;21.250;2023-07-31T10:35:16;23.30;99.90
59311;DHT22;45078;51.654;21.250;2023-07-31T10:37:43;23.50;99.90
59311;DHT22;45078;51.654;21.250;2023-07-31T10:40:16;23.60;99.90
59311;DHT22;45078;51.654;21.250;2023-07-31T10:43:05;23.70;99.90
59311;DHT22;45078;51.654;21.250;2023-07-31T10:45:42;23.80;99.90
59311;DHT22;45078;51.654;21.250;2023-07-31T10:48:21;23.70;99.90
59311;DHT22;45078;51.654;21.250;2023-07-31T10:50:57;23.50;99.90
59311;DHT22;45078;51.654;21.250;2023-07-31T10:53:30;23.40;99.90
59311;DHT22;45078;51.654;21.250;2023-07-31T10:56:00;23.30;99.80
59311;DHT22;45078;51.654;21.250;2023-07-31T10:58:26;23.40;99.10
59311;DHT22;45078;51.654;21.250;2023-07-31T11:00:57;23.70;99.90
59311;DHT22;45078;51.654;21.250;2023-07-31T11:03:49;23.80;99.90
59311;DHT22;45078;51.654;21.250;2023-07-31T11:06:15;24.00;98.90
59311;DHT22;45078;51.654;21.250;2023-07-31T11:08:44;24.00;96.00
59311;DHT22;45078;51.654;21.250;2023-07-31T11:11:19;24.00;96.50
59311;DHT22;45078;51.654;21.250;2023-07-31T11:13:46;24.10;95.70
59311;DHT22;45078;51.654;21.250;2023-07-31T11:16:14;24.30;96.90
59311;DHT22;45078;51.654;21.250;2023-07-31T11:18:45;24.30;93.80
59311;DHT22;45078;51.654;21.250;2023-07-31T11:21:28;24.40;93.20
59311;DHT22;45078;51.654;21.250;2023-07-31T11:23:58;24.20;94.80
59311;DHT22;45078;51.654;21.250;2023-07-31T11:26:24;24.30;96.00
59311;DHT22;45078;51.654;21.250;2023-07-31T11:28:50;24.20;94.60
59311;DHT22;45078;51.654;21.250;2023-07-31T11:31:17;24.10;95.30
59311;DHT22;45078;51.654;21.250;2023-07-31T11:33:43;24.10;93.80
59311;DHT22;45078;51.654;21.250;2023-07-31T11:36:20;24.00;94.10
59311;DHT22;45078;51.654;21.250;2023-07-31T11:38:46;23.90;92.70
59311;DHT22;45078;51.654;21.250;2023-07-31T11:41:15;24.00;94.10
59311;DHT22;45078;51.654;21.250;2023-07-31T11:43:41;24.10;95.80
59311;DHT22;45078;51.654;21.250;2023-07-31T11:46:07;24.20;93.90
59311;DHT22;45078;51.654;21.250;2023-07-31T11:48:37;24.40;95.20
59311;DHT22;45078;51.654;21.250;2023-07-31T11:51:05;24.30;92.80
59311;DHT22;45078;51.654;21.250;2023-07-31T11:56:21;24.10;94.00
59311;DHT22;45078;51.654;21.250;2023-07-31T11:58:52;24.00;95.00
59311;DHT22;45078;51.654;21.250;2023-07-31T12:01:19;23.90;93.90
59311;DHT22;45078;51.654;21.250;2023-07-31T12:03:46;23.90;95.90
59311;DHT22;45078;51.654;21.250;2023-07-31T12:06:12;24.10;94.60
59311;DHT22;45078;51.654;21.250;2023-07-31T12:08:38;24.30;96.30
59311;DHT22;45078;51.654;21.250;2023-07-31T12:11:06;24.20;93.80
59311;DHT22;45078;51.654;21.250;2023-07-31T12:13:33;24.40;94.30
59311;DHT22;45078;51.654;21.250;2023-07-31T12:16:00;24.50;93.50
59311;DHT22;45078;51.654;21.250;2023-07-31T12:18:30;24.50;92.70
59311;DHT22;45078;51.654;21.250;2023-07-31T12:20:59;24.60;91.60
59311;DHT22;45078;51.654;21.250;2023-07-31T12:23:30;24.50;91.70
59311;DHT22;45078;51.654;21.250;2023-07-31T12:26:16;24.60;91.70
59311;DHT22;45078;51.654;21.250;2023-07-31T12:28:43;24.40;91.50
59311;DHT22;45078;51.654;21.250;2023-07-31T12:31:10;24.30;92.60
59311;DHT22;45078;51.654;21.250;2023-07-31T12:33:38;24.10;92.30
59311;DHT22;45078;51.654;21.250;2023-07-31T12:36:11;24.20;90.70
59311;DHT22;45078;51.654;21.250;2023-07-31T12:38:37;24.20;91.50
59311;DHT22;45078;51.654;21.250;2023-07-31T12:41:03;24.20;90.60
59311;DHT22;45078;51.654;21.250;2023-07-31T12:43:29;24.20;90.50
59311;DHT22;45078;51.654;21.250;2023-07-31T12:45:55;24.40;90.20
59311;DHT22;45078;51.654;21.250;2023-07-31T12:48:24;24.40;91.60
59311;DHT22;45078;51.654;21.250;2023-07-31T12:50:50;24.40;90.30
59311;DHT22;45078;51.654;21.250;2023-07-31T12:53:16;24.40;92.30
59311;DHT22;45078;51.654;21.250;2023-07-31T12:55:42;24.50;90.40
59311;DHT22;45078;51.654;21.250;2023-07-31T12:58:07;24.50;87.50
59311;DHT22;45078;51.654;21.250;2023-07-31T13:00:33;24.50;88.90
59311;DHT22;45078;51.654;21.250;2023-07-31T13:03:00;24.50;87.00
59311;DHT22;45078;51.654;21.250;2023-07-31T13:05:27;24.40;86.10
59311;DHT22;45078;51.654;21.250;2023-07-31T13:07:52;24.30;86.20
59311;DHT22;45078;51.654;21.250;2023-07-31T13:10:18;24.30;89.60
59311;DHT22;45078;51.654;21.250;2023-07-31T13:12:44;24.40;86.70
59311;DHT22;45078;51.654;21.250;2023-07-31T13:15:10;24.40;88.90
59311;DHT22;45078;51.654;21.250;2023-07-31T13:17:36;24.40;86.30
59311;DHT22;45078;51.654;21.250;2023-07-31T13:20:03;24.40;88.00
59311;DHT22;45078;51.654;21.250;2023-07-31T13:22:29;24.50;84.60
59311;DHT22;45078;51.654;21.250;2023-07-31T13:24:55;24.60;89.30
59311;DHT22;45078;51.654;21.250;2023-07-31T13:27:21;24.70;85.50
59311;DHT22;45078;51.654;21.250;2023-07-31T13:29:53;24.70;86.50
59311;DHT22;45078;51.654;21.250;2023-07-31T13:32:19;24.80;87.10
59311;DHT22;45078;51.654;21.250;2023-07-31T13:34:46;25.10;84.80
59311;DHT22;45078;51.654;21.250;2023-07-31T13:37:13;25.40;83.50
59311;DHT22;45078;51.654;21.250;2023-07-31T13:39:39;25.50;81.30
59311;DHT22;45078;51.654;21.250;2023-07-31T13:42:06;25.20;82.50
59311;DHT22;45078;51.654;21.250;2023-07-31T13:44:37;25.00;83.10
59311;DHT22;45078;51.654;21.250;2023-07-31T13:47:03;25.00;85.10
59311;DHT22;45078;51.654;21.250;2023-07-31T13:49:29;25.00;83.10
59311;DHT22;45078;51.654;21.250;2023-07-31T13:51:55;25.20;82.10
59311;DHT22;45078;51.654;21.250;2023-07-31T13:54:22;25.30;80.00
59311;DHT22;45078;51.654;21.250;2023-07-31T13:56:48;25.60;75.80
59311;DHT22;45078;51.654;21.250;2023-07-31T13:59:14;25.50;75.70
59311;DHT22;45078;51.654;21.250;2023-07-31T14:01:44;25.50;80.00
59311;DHT22;45078;51.654;21.250;2023-07-31T14:04:10;25.50;77.70
59311;DHT22;45078;51.654;21.250;2023-07-31T14:06:36;25.40;78.90
59311;DHT22;45078;51.654;21.250;2023-07-31T14:09:02;25.10;77.70
59311;DHT22;45078;51.654;21.250;2023-07-31T14:11:28;24.90;78.40
59311;DHT22;45078;51.654;21.250;2023-07-31T14:13:54;24.80;79.10
59311;DHT22;45078;51.654;21.250;2023-07-31T14:16:21;24.70;80.20
59311;DHT22;45078;51.654;21.250;2023-07-31T14:18:47;24.90;78.40
59311;DHT22;45078;51.654;21.250;2023-07-31T14:21:13;25.20;81.80
59311;DHT22;45078;51.654;21.250;2023-07-31T14:23:39;25.30;80.50
59311;DHT22;45078;51.654;21.250;2023-07-31T14:26:05;25.50;79.30
59311;DHT22;45078;51.654;21.250;2023-07-31T14:28:31;25.10;77.70
59311;DHT22;45078;51.654;21.250;2023-07-31T14:30:57;24.90;77.50
59311;DHT22;45078;51.654;21.250;2023-07-31T14:33:23;24.90;78.90
59311;DHT22;45078;51.654;21.250;2023-07-31T14:35:49;25.10;79.70
59311;DHT22;45078;51.654;21.250;2023-07-31T14:38:14;25.30;76.40
59311;DHT22;45078;51.654;21.250;2023-07-31T14:40:41;25.50;78.80
59311;DHT22;45078;51.654;21.250;2023-07-31T14:43:07;25.30;79.50
59311;DHT22;45078;51.654;21.250;2023-07-31T14:45:32;25.40;80.00
59311;DHT22;45078;51.654;21.250;2023-07-31T14:47:58;25.10;77.00
59311;DHT22;45078;51.654;21.250;2023-07-31T14:50:25;25.00;78.30
59311;DHT22;45078;51.654;21.250;2023-07-31T14:52:51;25.10;79.90
59311;DHT22;45078;51.654;21.250;2023-07-31T14:55:18;25.10;79.70
59311;DHT22;45078;51.654;21.250;2023-07-31T14:57:43;25.10;78.80
59311;DHT22;45078;51.654;21.250;2023-07-31T15:00:09;25.10;77.60
59311;DHT22;45078;51.654;21.250;2023-07-31T15:02:36;25.10;79.90
59311;DHT22;45078;51.654;21.250;2023-07-31T15:05:02;25.40;76.10
59311;DHT22;45078;51.654;21.250;2023-07-31T15:07:28;25.70;77.70
59311;DHT22;45078;51.654;21.250;2023-07-31T15:09:54;25.70;75.60
59311;DHT22;45078;51.654;21.250;2023-07-31T15:12:20;25.60;76.40
59311;DHT22;45078;51.654;21.250;2023-07-31T15:14:45;25.60;77.90
59311;DHT22;45078;51.654;21.250;2023-07-31T15:17:11;25.70;76.80
59311;DHT22;45078;51.654;21.250;2023-07-31T15:19:37;25.90;73.90
59311;DHT22;45078;51.654;21.250;2023-07-31T15:22:05;25.90;76.50
59311;DHT22;45078;51.654;21.250;2023-07-31T15:24:31;25.80;74.90